createdAt,value
2022-11-05T00:00:37.048Z,99707.47
2022-11-05T00:05:54.371Z,99717.84
2022-11-05T00:10:53.101Z,99717.66
2022-11-05T00:16:10.595Z,99724.88
2022-11-05T00:21:29.711Z,99730.78
2022-11-05T00:26:28.364Z,99728.41
2022-11-05T00:31:27.448Z,99728.34
2022-11-05T00:36:26.132Z,99733.69
2022-11-05T00:41:24.840Z,99741.34
2022-11-05T00:46:23.564Z,99744.81
2022-11-05T00:51:22.545Z,99751.50
2022-11-05T00:56:21.318Z,99753.75
2022-11-05T01:01:20.043Z,99759.84
2022-11-05T01:06:19.343Z,99768.75
2022-11-05T01:11:34.616Z,99765.09
2022-11-05T01:16:33.839Z,99772.41
2022-11-05T01:21:33.038Z,99765.81
2022-11-05T01:26:31.841Z,99775.47
2022-11-05T01:31:30.493Z,99777.34
2022-11-05T01:36:29.235Z,99787.44
2022-11-05T01:41:27.969Z,99803.38
2022-11-05T01:46:41.223Z,99811.09
2022-11-05T01:51:41.310Z,99827.84
2022-11-05T01:56:48.654Z,99828.91
2022-11-05T02:01:47.653Z,99832.34
2022-11-05T02:06:46.757Z,99827.75
2022-11-05T02:11:46.846Z,99833.72
2022-11-05T02:17:38.159Z,99825.09
2022-11-05T02:22:48.941Z,99845.28
2022-11-05T02:28:09.316Z,99853.56
2022-11-05T02:33:18.036Z,99852.84
2022-11-05T02:38:52.270Z,99857.66
2022-11-05T02:44:09.299Z,99864.38
2022-11-05T02:49:17.279Z,99856.91
2022-11-05T02:54:38.920Z,99855.59
2022-11-05T02:59:37.605Z,99869.69
2022-11-05T03:04:36.507Z,99874.69
2022-11-05T03:09:56.163Z,99882.53
2022-11-05T03:15:07.017Z,99889.25
2022-11-05T03:20:21.648Z,99899.47
2022-11-05T03:25:24.206Z,99906.34
2022-11-05T03:30:25.124Z,99907.03
2022-11-05T03:35:28.026Z,99906.50
2022-11-05T03:40:29.622Z,99905.19
2022-11-05T03:45:36.227Z,99912.50
2022-11-05T03:50:42.236Z,99917.22
2022-11-05T03:56:03.492Z,99921.66
2022-11-05T04:01:03.547Z,99930.09
2022-11-05T04:06:21.921Z,99938.50
2022-11-05T04:11:39.432Z,99944.75
2022-11-05T04:16:56.813Z,99959.81
2022-11-05T04:22:14.251Z,99967.22
2022-11-05T04:27:12.989Z,99964.66
2022-11-05T04:32:11.899Z,99978.38
2022-11-05T04:37:10.648Z,99988.06
2022-11-05T04:42:09.401Z,99988.31
2022-11-05T04:47:08.239Z,99991.22
2022-11-05T04:52:06.971Z,99990.22
2022-11-05T04:57:05.719Z,100000.13
2022-11-05T05:02:04.812Z,99994.88
2022-11-05T05:07:03.490Z,100010.63
2022-11-05T05:12:02.632Z,100001.72
2022-11-05T05:17:01.572Z,100016.34
2022-11-05T05:22:00.271Z,100029.97
2022-11-05T05:26:59.137Z,100018.50
2022-11-05T05:31:58.090Z,100030.22
2022-11-05T05:36:56.824Z,100048.69
2022-11-05T05:41:55.723Z,100058.16
2022-11-05T05:46:55.574Z,100047.84
2022-11-05T05:51:54.350Z,100055.13
2022-11-05T05:56:53.604Z,100060.72
2022-11-05T06:01:52.659Z,100064.16
2022-11-05T06:06:51.607Z,100072.06
2022-11-05T06:11:50.290Z,100069.34
2022-11-05T06:16:48.970Z,100075.16
2022-11-05T06:21:47.660Z,100083.56
2022-11-05T06:26:46.282Z,100100.38
2022-11-05T06:31:45.000Z,100110.34
2022-11-05T06:36:43.757Z,100117.78
2022-11-05T06:42:11.792Z,100122.47
2022-11-05T06:47:02.412Z,100135.81
2022-11-05T06:52:01.221Z,100144.38
2022-11-05T06:57:00.020Z,100157.84
2022-11-05T07:01:59.139Z,100159.44
2022-11-05T07:07:00.836Z,100174.44
2022-11-05T07:11:59.581Z,100183.09
2022-11-05T07:16:58.345Z,100191.06
2022-11-05T07:21:56.998Z,100193.53
2022-11-05T07:26:55.646Z,100211.00
2022-11-05T07:31:54.328Z,100221.44
2022-11-05T07:36:53.002Z,100229.59
2022-11-05T07:41:53.037Z,100238.53
2022-11-05T07:46:51.708Z,100235.94
2022-11-05T07:51:50.455Z,100246.31
2022-11-05T07:56:49.093Z,100248.16
2022-11-05T08:01:47.983Z,100239.25
2022-11-05T08:06:46.827Z,100253.38
2022-11-05T08:11:45.826Z,100272.72
2022-11-05T08:16:44.439Z,100266.09
2022-11-05T08:21:43.289Z,100263.69
2022-11-05T08:26:41.975Z,100283.31
2022-11-05T08:31:40.897Z,100282.78
2022-11-05T08:36:46.362Z,100294.09
2022-11-05T08:41:46.185Z,100292.78
2022-11-05T08:46:44.853Z,100294.50
2022-11-05T08:51:44.427Z,100305.19
2022-11-05T08:56:46.095Z,100315.41
2022-11-05T09:01:44.987Z,100314.56
2022-11-05T09:06:44.036Z,100318.38
2022-11-05T09:12:10.574Z,100310.66
2022-11-05T09:17:01.449Z,100317.81
2022-11-05T09:22:00.266Z,100327.19
2022-11-05T09:26:59.016Z,100321.66
2022-11-05T09:31:58.848Z,100324.00
2022-11-05T09:36:57.979Z,100326.81
2022-11-05T09:42:02.736Z,100332.91
2022-11-05T09:47:07.004Z,100329.38
2022-11-05T09:52:12.445Z,100334.00
2022-11-05T09:57:17.844Z,100332.66
2022-11-05T10:02:34.463Z,100330.47
2022-11-05T10:07:42.413Z,100337.22
2022-11-05T10:12:50.771Z,100345.31
2022-11-05T10:17:56.394Z,100344.81
2022-11-05T10:22:58.854Z,100352.25
2022-11-05T10:27:59.466Z,100355.41
2022-11-05T10:33:01.912Z,100359.88
2022-11-05T10:38:02.011Z,100376.31
2022-11-05T10:43:16.687Z,100376.13
2022-11-05T10:48:26.103Z,100375.28
2022-11-05T10:53:30.096Z,100369.78
2022-11-05T10:58:35.324Z,100369.41
2022-11-05T11:03:34.164Z,100365.63
2022-11-05T11:08:35.655Z,100367.22
2022-11-05T11:13:51.226Z,100377.19
2022-11-05T11:19:01.095Z,100380.75
2022-11-05T11:24:03.022Z,100382.31
2022-11-05T11:29:05.984Z,100385.38
2022-11-05T11:34:07.929Z,100388.63
2022-11-05T11:39:07.703Z,100384.16
2022-11-05T11:44:13.138Z,100380.81
2022-11-05T11:49:50.292Z,100388.66
2022-11-05T11:54:50.644Z,100388.09
2022-11-05T12:05:14.779Z,100385.56
2022-11-05T12:10:23.588Z,100382.56
2022-11-05T12:15:27.742Z,100380.88
2022-11-05T12:20:48.136Z,100383.66
2022-11-05T12:26:15.149Z,100387.13
2022-11-05T12:31:37.855Z,100387.53
2022-11-05T12:37:07.595Z,100397.28
2022-11-05T12:42:31.305Z,100393.28
2022-11-05T12:48:13.722Z,100391.31
2022-11-05T12:53:34.094Z,100387.38
2022-11-05T12:58:35.767Z,100402.97
2022-11-05T13:03:42.350Z,100399.16
2022-11-05T13:09:01.051Z,100402.44
2022-11-05T13:14:14.558Z,100405.88
2022-11-05T13:19:23.340Z,100399.09
2022-11-05T13:24:32.983Z,100407.22
2022-11-05T13:29:38.297Z,100408.63
2022-11-05T13:34:37.862Z,100414.25
2022-11-05T13:39:50.765Z,100420.94
2022-11-05T13:45:27.139Z,100421.38
2022-11-05T13:50:44.299Z,100434.88
2022-11-05T13:56:09.728Z,100428.53
2022-11-05T14:01:33.698Z,100436.41
2022-11-05T14:06:36.142Z,100447.84
2022-11-05T14:11:42.803Z,100447.59
2022-11-05T14:17:09.504Z,100451.28
2022-11-05T14:22:33.446Z,100469.84
2022-11-05T14:27:42.694Z,100466.03
2022-11-05T14:32:50.111Z,100450.88
2022-11-05T14:37:56.910Z,100460.59
2022-11-05T14:42:59.066Z,100461.81
2022-11-05T14:48:03.571Z,100467.41
2022-11-05T14:53:10.860Z,100472.03
2022-11-05T14:58:27.645Z,100464.38
2022-11-05T15:03:59.321Z,100475.84
2022-11-05T15:09:17.389Z,100485.97
2022-11-05T15:14:34.603Z,100498.88
2022-11-05T15:19:37.032Z,100497.94
2022-11-05T15:24:37.485Z,100504.28
2022-11-05T15:29:36.727Z,100502.81
2022-11-05T15:34:35.885Z,100505.84
2022-11-05T15:39:49.318Z,100516.59
2022-11-05T15:44:58.923Z,100516.88
2022-11-05T15:50:09.958Z,100513.84
2022-11-05T15:55:12.137Z,100517.38
2022-11-05T16:00:21.065Z,100522.91
2022-11-05T16:05:21.255Z,100523.25
2022-11-05T16:10:26.684Z,100529.38
2022-11-05T16:15:29.511Z,100533.19
2022-11-05T16:20:34.570Z,100531.84
2022-11-05T16:25:39.385Z,100541.91
2022-11-05T16:30:38.097Z,100544.00
2022-11-05T16:35:46.007Z,100547.19
2022-11-05T16:40:44.917Z,100548.56
2022-11-05T16:45:43.829Z,100551.69
2022-11-05T16:50:43.241Z,100553.72
2022-11-05T16:55:44.915Z,100559.06
2022-11-05T17:00:43.713Z,100558.00
2022-11-05T17:05:42.869Z,100562.56
2022-11-05T17:10:41.630Z,100569.41
2022-11-05T17:15:41.789Z,100569.56
2022-11-05T17:20:44.090Z,100570.03
2022-11-05T17:25:45.731Z,100573.56
2022-11-05T17:30:51.689Z,100580.00
2022-11-05T17:35:52.223Z,100592.44
2022-11-05T17:40:51.875Z,100582.84
2022-11-05T17:45:52.440Z,100590.81
2022-11-05T17:50:51.374Z,100599.53
2022-11-05T17:55:50.187Z,100610.09
2022-11-05T18:00:48.927Z,100610.66
2022-11-05T18:05:47.657Z,100608.16
2022-11-05T18:10:46.362Z,100625.47
2022-11-05T18:15:45.099Z,100629.50
2022-11-05T18:20:43.967Z,100637.75
2022-11-05T18:25:43.303Z,100637.56
2022-11-05T18:30:42.575Z,100644.16
2022-11-05T18:35:43.256Z,100653.28
2022-11-05T18:40:42.104Z,100645.25
2022-11-05T18:45:40.956Z,100647.72
2022-11-05T18:50:40.047Z,100652.56
2022-11-05T18:55:40.554Z,100652.69
2022-11-05T19:00:40.165Z,100653.56
2022-11-05T19:05:39.060Z,100665.78
2022-11-05T19:10:40.721Z,100669.31
2022-11-05T19:15:43.944Z,100655.66
2022-11-05T19:20:42.984Z,100660.84
2022-11-05T19:25:41.660Z,100668.06
2022-11-05T19:30:40.588Z,100662.06
2022-11-05T19:35:41.632Z,100664.72
2022-11-05T19:40:40.414Z,100675.94
2022-11-05T19:45:44.932Z,100670.97
2022-11-05T19:50:44.146Z,100675.53
2022-11-05T19:55:44.968Z,100682.75
2022-11-05T20:00:44.097Z,100689.59
2022-11-05T20:05:43.428Z,100692.09
2022-11-05T20:10:42.337Z,100686.88
2022-11-05T20:15:41.150Z,100696.19
2022-11-05T20:20:40.029Z,100697.41
2022-11-05T20:25:39.046Z,100700.94
2022-11-05T20:30:39.191Z,100709.41
2022-11-05T20:35:39.689Z,100710.06
2022-11-05T20:40:39.355Z,100717.53
2022-11-05T20:45:38.342Z,100719.91
2022-11-05T20:50:44.450Z,100720.16
2022-11-05T20:55:44.933Z,100729.16
2022-11-05T21:00:55.384Z,100725.13
2022-11-05T21:06:04.131Z,100724.09
2022-11-05T21:11:03.047Z,100716.75
2022-11-05T21:16:02.504Z,100713.31
2022-11-05T21:21:12.216Z,100703.59
2022-11-05T21:26:13.398Z,100711.66
2022-11-05T21:31:12.189Z,100710.16
2022-11-05T21:36:12.933Z,100720.91
2022-11-05T21:41:12.739Z,100718.34
2022-11-05T21:46:13.481Z,100713.59
2022-11-05T21:51:30.937Z,100720.03
2022-11-05T21:56:48.441Z,100721.13
2022-11-05T22:01:47.327Z,100727.81
2022-11-05T22:06:46.426Z,100728.03
2022-11-05T22:11:45.103Z,100718.06
2022-11-05T22:16:43.843Z,100720.47
2022-11-05T22:21:42.873Z,100713.59
2022-11-05T22:26:43.063Z,100709.25
2022-11-05T22:31:41.940Z,100711.09
2022-11-05T22:36:40.864Z,100711.28
2022-11-05T22:41:40.167Z,100708.56
2022-11-05T22:46:38.970Z,100710.38
2022-11-05T22:51:38.738Z,100715.22
2022-11-05T22:56:40.782Z,100699.97
2022-11-05T23:01:40.867Z,100704.97
2022-11-05T23:06:58.362Z,100702.22
2022-11-05T23:12:00.352Z,100701.69
2022-11-05T23:17:18.030Z,100707.59
2022-11-05T23:22:38.618Z,100706.16
2022-11-05T23:27:39.733Z,100716.72
2022-11-05T23:32:38.565Z,100722.34
2022-11-05T23:37:56.234Z,100716.34
2022-11-05T23:43:14.667Z,100709.47
2022-11-05T23:48:36.438Z,100706.84
2022-11-05T23:53:37.393Z,100709.38
2022-11-05T23:58:37.509Z,100708.06
